createdAt,value
2019-03-06T00:00:51.491Z,100352.62
2019-03-06T00:03:23.438Z,100355.93
2019-03-06T00:05:54.629Z,100348.98
2019-03-06T00:08:25.731Z,100359.14
2019-03-06T00:10:57.029Z,100361.92
2019-03-06T00:13:28.276Z,100354.48
2019-03-06T00:15:59.571Z,100350.38
2019-03-06T00:18:30.812Z,100340.27
2019-03-06T00:21:01.995Z,100339.59
2019-03-06T00:23:33.285Z,100337.56
2019-03-06T00:26:05.024Z,100325.05
2019-03-06T00:28:36.274Z,100323.58
2019-03-06T00:31:07.712Z,100322.07
2019-03-06T00:33:38.912Z,100313.70
2019-03-06T00:36:16.519Z,100314.98
2019-03-06T00:38:47.817Z,100315.80
2019-03-06T00:41:37.790Z,100317.45
2019-03-06T00:44:09.154Z,100312.63
2019-03-06T00:46:40.368Z,100316.53
2019-03-06T00:49:11.642Z,100320.41
2019-03-06T00:51:42.914Z,100317.84
2019-03-06T00:54:14.249Z,100315.82
2019-03-06T00:56:45.461Z,100320.65
2019-03-06T00:59:16.743Z,100313.18
2019-03-06T01:01:48.126Z,100315.55
2019-03-06T01:04:19.577Z,100321.87
2019-03-06T01:06:50.695Z,100314.98
2019-03-06T01:09:21.911Z,100312.76
2019-03-06T01:11:53.251Z,100306.39
2019-03-06T01:14:24.541Z,100307.38
2019-03-06T01:16:55.755Z,100310.22
2019-03-06T01:19:27.037Z,100301.30
2019-03-06T01:21:58.223Z,100306.98
2019-03-06T01:24:29.341Z,100305.63
2019-03-06T01:27:00.585Z,100299.23
2019-03-06T01:29:31.681Z,100297.58
2019-03-06T01:32:02.887Z,100285.06
2019-03-06T01:34:48.205Z,100282.05
2019-03-06T01:37:33.419Z,100277.11
2019-03-06T01:40:29.311Z,100274.06
2019-03-06T01:43:11.579Z,100260.16
2019-03-06T01:45:42.809Z,100259.12
2019-03-06T01:48:14.039Z,100253.80
2019-03-06T01:50:45.297Z,100250.67
2019-03-06T01:53:16.502Z,100245.64
2019-03-06T01:55:47.764Z,100240.01
2019-03-06T01:58:19.080Z,100239.61
2019-03-06T02:00:50.355Z,100238.36
2019-03-06T02:03:21.541Z,100229.69
2019-03-06T02:05:52.749Z,100232.73
2019-03-06T02:08:23.983Z,100226.04
2019-03-06T02:10:55.343Z,100218.06
2019-03-06T02:13:26.591Z,100221.70
2019-03-06T02:15:57.805Z,100220.23
2019-03-06T02:18:29.253Z,100217.55
2019-03-06T02:21:00.694Z,100216.37
2019-03-06T02:23:31.936Z,100206.71
2019-03-06T02:26:03.217Z,100208.55
2019-03-06T02:28:34.356Z,100201.78
2019-03-06T02:31:05.596Z,100195.56
2019-03-06T02:33:36.842Z,100203.14
2019-03-06T02:36:08.087Z,100197.84
2019-03-06T02:38:39.312Z,100188.32
2019-03-06T02:41:10.436Z,100181.05
2019-03-06T02:43:41.764Z,100170.54
2019-03-06T02:46:12.880Z,100161.06
2019-03-06T02:48:44.183Z,100160.83
2019-03-06T02:51:15.330Z,100151.83
2019-03-06T02:53:46.486Z,100150.84
2019-03-06T02:56:17.738Z,100142.05
2019-03-06T02:59:09.598Z,100141.27
2019-03-06T03:01:55.390Z,100132.98
2019-03-06T03:04:36.951Z,100133.42
2019-03-06T03:07:11.419Z,100138.17
2019-03-06T03:09:42.833Z,100133.93
2019-03-06T03:12:14.101Z,100135.06
2019-03-06T03:14:45.288Z,100125.63
2019-03-06T03:17:16.500Z,100121.63
2019-03-06T03:19:47.738Z,100121.53
2019-03-06T03:22:18.990Z,100115.59
2019-03-06T03:24:50.118Z,100117.91
2019-03-06T03:27:21.359Z,100108.16
2019-03-06T03:29:52.501Z,100105.02
2019-03-06T03:32:23.825Z,100103.22
2019-03-06T03:34:55.097Z,100104.83
2019-03-06T03:37:26.432Z,100096.59
2019-03-06T03:39:57.659Z,100098.70
2019-03-06T03:42:29.139Z,100098.95
2019-03-06T03:45:00.549Z,100099.00
2019-03-06T03:47:31.766Z,100091.85
2019-03-06T03:50:03.052Z,100088.03
2019-03-06T03:52:34.217Z,100095.98
2019-03-06T03:55:05.948Z,100085.83
2019-03-06T03:57:37.233Z,100087.00
2019-03-06T04:00:11.001Z,100076.57
2019-03-06T04:02:42.371Z,100079.61
2019-03-06T04:05:14.615Z,100077.28
2019-03-06T04:07:45.951Z,100077.28
2019-03-06T04:10:17.229Z,100073.31
2019-03-06T04:12:48.554Z,100070.39
2019-03-06T04:15:20.126Z,100070.54
2019-03-06T04:17:51.423Z,100074.16
2019-03-06T04:20:22.671Z,100072.38
2019-03-06T04:22:53.986Z,100066.93
2019-03-06T04:25:25.236Z,100055.19
2019-03-06T04:27:56.440Z,100059.80
2019-03-06T04:30:27.741Z,100065.74
2019-03-06T04:32:58.980Z,100075.89
2019-03-06T04:35:30.285Z,100071.39
2019-03-06T04:38:01.825Z,100068.77
2019-03-06T04:40:33.077Z,100053.69
2019-03-06T04:43:04.181Z,100053.37
2019-03-06T04:45:35.430Z,100043.42
2019-03-06T04:48:06.625Z,100023.86
2019-03-06T04:50:37.865Z,100024.05
2019-03-06T04:53:08.986Z,100016.76
2019-03-06T04:55:40.190Z,100013.77
2019-03-06T04:58:11.346Z,100018.09
2019-03-06T05:00:42.618Z,100015.75
2019-03-06T05:03:13.835Z,100014.94
2019-03-06T05:05:45.038Z,100009.63
2019-03-06T05:08:16.209Z,100008.80
2019-03-06T05:10:47.685Z,100003.32
2019-03-06T05:13:18.913Z,99995.21
2019-03-06T05:15:50.123Z,99983.27
2019-03-06T05:18:43.331Z,99984.61
2019-03-06T05:21:14.513Z,99995.88
2019-03-06T05:23:45.825Z,99994.55
2019-03-06T05:26:16.996Z,99998.53
2019-03-06T05:28:48.207Z,99977.97
2019-03-06T05:31:19.459Z,99973.83
2019-03-06T05:33:50.764Z,99971.69
2019-03-06T05:37:20.099Z,99959.75
2019-03-06T05:39:51.463Z,99961.09
2019-03-06T05:42:22.606Z,99956.30
2019-03-06T05:44:54.223Z,99955.29
2019-03-06T05:47:25.458Z,99938.56
2019-03-06T05:49:56.679Z,99933.09
2019-03-06T05:52:27.825Z,99937.08
2019-03-06T05:54:58.963Z,99934.28
2019-03-06T05:57:30.178Z,99928.80
2019-03-06T06:00:01.397Z,99928.47
2019-03-06T06:02:32.676Z,99922.66
2019-03-06T06:05:03.956Z,99918.52
2019-03-06T06:07:35.236Z,99911.25
2019-03-06T06:10:06.956Z,99919.03
2019-03-06T06:12:38.187Z,99909.09
2019-03-06T06:15:10.849Z,99912.55
2019-03-06T06:17:42.100Z,99896.48
2019-03-06T06:20:13.427Z,99892.16
2019-03-06T06:22:53.154Z,99882.88
2019-03-06T06:25:24.384Z,99881.70
2019-03-06T06:27:55.666Z,99884.52
2019-03-06T06:30:26.968Z,99879.22
2019-03-06T06:32:58.334Z,99874.39
2019-03-06T06:35:29.577Z,99871.73
2019-03-06T06:38:00.828Z,99868.07
2019-03-06T06:40:32.065Z,99866.27
2019-03-06T06:43:03.311Z,99868.60
2019-03-06T06:45:34.772Z,99862.59
2019-03-06T06:48:14.953Z,99859.42
2019-03-06T06:51:00.954Z,99858.26
2019-03-06T06:53:59.684Z,99852.64
2019-03-06T06:57:42.864Z,99838.50
2019-03-06T07:01:28.207Z,99836.81
2019-03-06T07:04:39.221Z,99826.66
2019-03-06T07:07:22.165Z,99817.66
2019-03-06T07:10:10.845Z,99815.45
2019-03-06T07:12:58.114Z,99809.29
2019-03-06T07:15:39.444Z,99804.65
2019-03-06T07:18:25.120Z,99798.62
2019-03-06T07:21:10.882Z,99790.17
2019-03-06T07:23:57.478Z,99790.30
2019-03-06T07:26:47.922Z,99780.42
2019-03-06T07:29:33.877Z,99780.72
2019-03-06T07:32:39.030Z,99780.89
2019-03-06T07:36:16.917Z,99777.17
2019-03-06T07:38:49.136Z,99777.17
2019-03-06T07:41:39.194Z,99774.31
2019-03-06T07:44:31.125Z,99779.43
2019-03-06T07:47:19.753Z,99778.45
2019-03-06T07:49:57.681Z,99782.09
2019-03-06T07:52:46.379Z,99780.73
2019-03-06T07:55:40.716Z,99778.36
2019-03-06T07:58:56.759Z,99775.92
2019-03-06T08:01:31.284Z,99775.13
2019-03-06T08:04:14.460Z,99772.30
2019-03-06T08:06:55.362Z,99772.53
2019-03-06T08:09:26.653Z,99773.67
2019-03-06T08:12:14.222Z,99769.86
2019-03-06T08:15:02.657Z,99748.58
2019-03-06T08:17:52.680Z,99750.56
2019-03-06T08:20:34.212Z,99744.52
2019-03-06T08:23:33.359Z,99733.73
2019-03-06T08:26:05.738Z,99724.56
2019-03-06T08:28:38.559Z,99727.75
2019-03-06T08:31:31.717Z,99722.45
2019-03-06T08:34:03.021Z,99711.44
2019-03-06T08:36:34.465Z,99710.41
2019-03-06T08:39:16.277Z,99706.06
2019-03-06T08:41:47.669Z,99704.06
2019-03-06T08:44:19.023Z,99701.89
2019-03-06T08:47:05.043Z,99704.72
2019-03-06T08:50:02.312Z,99705.21
2019-03-06T08:52:41.243Z,99696.41
2019-03-06T08:55:34.366Z,99706.31
2019-03-06T08:58:21.174Z,99700.37
2019-03-06T09:01:11.312Z,99703.67
2019-03-06T09:04:16.519Z,99696.48
2019-03-06T09:07:07.161Z,99700.16
2019-03-06T09:09:56.000Z,99698.16
2019-03-06T09:12:55.370Z,99682.99
2019-03-06T09:15:43.592Z,99673.47
2019-03-06T09:18:39.784Z,99671.39
2019-03-06T09:21:25.465Z,99667.98
2019-03-06T09:24:13.027Z,99654.91
2019-03-06T09:27:06.281Z,99657.71
2019-03-06T09:29:56.448Z,99644.85
2019-03-06T09:32:49.561Z,99644.67
2019-03-06T09:35:48.334Z,99633.19
2019-03-06T09:38:41.627Z,99617.77
2019-03-06T09:41:30.786Z,99613.87
2019-03-06T09:44:26.963Z,99619.02
2019-03-06T09:47:08.759Z,99606.67
2019-03-06T09:49:57.455Z,99600.42
2019-03-06T09:52:48.734Z,99596.52
2019-03-06T09:55:51.060Z,99585.94
2019-03-06T09:58:50.116Z,99582.03
2019-03-06T10:01:43.262Z,99565.87
2019-03-06T10:04:31.585Z,99557.75
2019-03-06T10:07:21.711Z,99544.17
2019-03-06T10:10:01.905Z,99548.39
2019-03-06T10:12:47.207Z,99542.91
2019-03-06T10:15:25.853Z,99545.74
2019-03-06T10:18:18.712Z,99540.73
2019-03-06T10:20:50.007Z,99537.30
2019-03-06T10:23:21.269Z,99526.88
2019-03-06T10:25:52.897Z,99535.78
2019-03-06T10:31:02.394Z,99528.69
2019-03-06T10:33:30.244Z,99527.48
2019-03-06T10:36:01.867Z,99531.41
2019-03-06T10:38:33.461Z,99530.48
2019-03-06T10:41:05.093Z,99530.97
2019-03-06T10:43:37.470Z,99535.58
2019-03-06T10:46:09.064Z,99529.60
2019-03-06T10:48:43.106Z,99534.11
2019-03-06T10:51:16.402Z,99535.95
2019-03-06T10:53:54.578Z,99526.68
2019-03-06T10:56:35.929Z,99532.98
2019-03-06T10:59:08.279Z,99526.08
2019-03-06T11:01:39.987Z,99526.73
2019-03-06T11:04:25.795Z,99518.19
2019-03-06T11:06:57.287Z,99543.20
2019-03-06T11:09:29.416Z,99521.31
2019-03-06T11:12:00.908Z,99521.94
2019-03-06T11:14:32.461Z,99526.40
2019-03-06T11:17:15.468Z,99522.98
2019-03-06T11:19:49.962Z,99508.52
2019-03-06T11:22:21.232Z,99494.98
2019-03-06T11:24:55.543Z,99484.97
2019-03-06T11:27:26.798Z,99486.69
2019-03-06T11:29:58.266Z,99473.38
2019-03-06T11:32:30.109Z,99471.13
2019-03-06T11:35:01.509Z,99459.91
2019-03-06T11:37:34.319Z,99473.13
2019-03-06T11:40:09.664Z,99467.91
2019-03-06T11:42:41.371Z,99456.52
2019-03-06T11:45:15.576Z,99444.88
2019-03-06T11:47:50.040Z,99436.40
2019-03-06T11:50:21.730Z,99428.48
2019-03-06T11:52:53.463Z,99412.22
2019-03-06T11:55:25.876Z,99402.69
2019-03-06T11:57:57.556Z,99399.72
2019-03-06T12:00:43.267Z,99390.54
2019-03-06T12:03:17.078Z,99388.20
2019-03-06T12:05:50.594Z,99384.44
2019-03-06T12:08:22.836Z,99381.86
2019-03-06T12:10:56.576Z,99376.29
2019-03-06T12:13:27.976Z,99375.83
2019-03-06T12:15:59.344Z,99373.83
2019-03-06T12:18:34.923Z,99363.92
2019-03-06T12:21:06.321Z,99361.13
2019-03-06T12:23:37.602Z,99363.05
2019-03-06T12:26:08.982Z,99354.03
2019-03-06T12:28:40.757Z,99355.80
2019-03-06T12:31:13.025Z,99346.17
2019-03-06T12:33:44.388Z,99340.91
2019-03-06T12:36:15.833Z,99341.92
2019-03-06T12:38:50.512Z,99328.32
2019-03-06T12:41:22.067Z,99336.64
2019-03-06T12:43:53.848Z,99314.58
2019-03-06T12:46:26.677Z,99331.16
2019-03-06T12:49:07.177Z,99321.88
2019-03-06T12:51:39.423Z,99320.14
2019-03-06T12:54:11.174Z,99313.95
2019-03-06T12:56:42.407Z,99313.48
2019-03-06T12:59:14.227Z,99309.55
2019-03-06T13:01:45.514Z,99306.74
2019-03-06T13:04:16.837Z,99306.14
2019-03-06T13:06:48.085Z,99305.47
2019-03-06T13:09:22.910Z,99302.25
2019-03-06T13:11:54.218Z,99300.23
2019-03-06T13:14:25.683Z,99299.30
2019-03-06T13:16:57.692Z,99291.55
2019-03-06T13:19:29.423Z,99288.30
2019-03-06T13:22:00.745Z,99283.73
2019-03-06T13:24:32.054Z,99278.39
2019-03-06T13:27:03.560Z,99282.77
2019-03-06T13:29:39.433Z,99278.66
2019-03-06T13:32:12.264Z,99276.11
2019-03-06T13:34:54.482Z,99265.58
2019-03-06T13:37:25.458Z,99256.30
2019-03-06T13:40:03.280Z,99248.10
2019-03-06T13:42:33.936Z,99246.77
2019-03-06T13:45:05.567Z,99232.53
2019-03-06T13:47:36.837Z,99237.06
2019-03-06T13:50:11.806Z,99232.27
2019-03-06T13:52:43.247Z,99226.30
2019-03-06T13:55:23.484Z,99219.53
2019-03-06T13:58:00.354Z,99221.09
2019-03-06T14:00:31.808Z,99214.97
2019-03-06T14:03:03.071Z,99213.08
2019-03-06T14:05:34.463Z,99208.23
2019-03-06T14:08:07.397Z,99219.29
2019-03-06T14:10:38.900Z,99225.52
2019-03-06T14:13:10.111Z,99230.85
2019-03-06T14:15:41.390Z,99233.62
2019-03-06T14:18:14.783Z,99228.12
2019-03-06T14:20:46.196Z,99236.45
2019-03-06T14:23:17.647Z,99234.33
2019-03-06T14:25:48.928Z,99244.69
2019-03-06T14:28:20.136Z,99243.06
2019-03-06T14:30:51.510Z,99244.48
2019-03-06T14:33:25.389Z,99246.87
2019-03-06T14:35:57.038Z,99243.19
2019-03-06T14:38:28.248Z,99243.43
2019-03-06T14:41:00.442Z,99240.30
2019-03-06T14:43:31.769Z,99246.91
2019-03-06T14:46:03.177Z,99240.42
2019-03-06T14:48:34.468Z,99261.93
2019-03-06T14:51:05.932Z,99251.45
2019-03-06T14:53:37.382Z,99253.42
2019-03-06T14:56:09.277Z,99246.79
2019-03-06T14:58:40.967Z,99253.61
2019-03-06T15:01:12.349Z,99259.45
2019-03-06T15:03:43.446Z,99258.39
2019-03-06T15:06:14.944Z,99249.27
2019-03-06T15:08:46.305Z,99238.05
2019-03-06T15:11:17.767Z,99226.41
2019-03-06T15:13:49.366Z,99216.73
2019-03-06T15:16:20.649Z,99220.79
2019-03-06T15:18:52.029Z,99213.48
2019-03-06T15:21:23.368Z,99215.03
2019-03-06T15:23:54.824Z,99207.72
2019-03-06T15:26:26.077Z,99208.09
2019-03-06T15:28:57.470Z,99202.83
2019-03-06T15:31:28.793Z,99202.91
2019-03-06T15:34:00.174Z,99191.94
2019-03-06T15:36:32.703Z,99190.03
2019-03-06T15:39:06.110Z,99180.38
2019-03-06T15:41:37.367Z,99180.68
2019-03-06T15:44:08.683Z,99174.58
2019-03-06T15:46:40.108Z,99175.20
2019-03-06T15:49:11.531Z,99178.63
2019-03-06T15:51:42.816Z,99180.44
2019-03-06T15:54:15.019Z,99174.27
2019-03-06T15:56:46.435Z,99173.97
2019-03-06T15:59:17.932Z,99169.34
2019-03-06T16:01:49.440Z,99159.30
2019-03-06T16:04:20.942Z,99147.66
2019-03-06T16:06:54.290Z,99147.61
2019-03-06T16:09:25.737Z,99144.81
2019-03-06T16:11:57.423Z,99147.19
2019-03-06T16:14:28.859Z,99148.77
2019-03-06T16:17:00.148Z,99134.57
2019-03-06T16:19:31.385Z,99133.62
2019-03-06T16:22:02.830Z,99117.31
2019-03-06T16:24:34.208Z,99130.42
2019-03-06T16:27:05.698Z,99126.83
2019-03-06T16:29:36.999Z,99130.13
2019-03-06T16:32:08.655Z,99127.19
2019-03-06T16:34:40.431Z,99127.76
2019-03-06T16:37:11.833Z,99126.54
2019-03-06T16:39:44.500Z,99132.44
2019-03-06T16:42:23.778Z,99128.88
2019-03-06T16:44:55.386Z,99126.95
2019-03-06T16:47:27.028Z,99126.03
2019-03-06T16:49:59.031Z,99119.29
2019-03-06T16:52:32.455Z,99112.90
2019-03-06T16:55:03.931Z,99100.98
2019-03-06T16:57:35.263Z,99107.76
2019-03-06T17:00:26.340Z,99109.37
2019-03-06T17:02:58.252Z,99106.59
2019-03-06T17:05:30.374Z,99100.14
2019-03-06T17:08:02.724Z,99105.08
2019-03-06T17:10:34.546Z,99111.67
2019-03-06T17:13:06.744Z,99110.13
2019-03-06T17:15:38.286Z,99110.98
2019-03-06T17:18:09.744Z,99102.56
2019-03-06T17:20:41.163Z,99109.66
2019-03-06T17:23:12.694Z,99103.38
2019-03-06T17:25:44.316Z,99105.12
2019-03-06T17:28:15.651Z,99104.05
2019-03-06T17:30:47.161Z,99101.23
2019-03-06T17:33:19.027Z,99100.05
2019-03-06T17:35:50.351Z,99095.11
2019-03-06T17:38:21.869Z,99115.60
2019-03-06T17:40:53.576Z,99108.16
2019-03-06T17:43:24.966Z,99116.55
2019-03-06T17:45:56.495Z,99118.91
2019-03-06T17:48:28.077Z,99107.27
2019-03-06T17:51:01.887Z,99108.91
2019-03-06T17:53:38.239Z,99111.67
2019-03-06T17:56:11.664Z,99114.13
2019-03-06T17:58:43.472Z,99109.65
2019-03-06T18:01:19.430Z,99111.48
2019-03-06T18:03:57.025Z,99101.33
2019-03-06T18:06:28.449Z,99102.89
2019-03-06T18:08:59.812Z,99095.80
2019-03-06T18:11:33.217Z,99087.41
2019-03-06T18:14:05.764Z,99085.67
2019-03-06T18:16:37.425Z,99089.87
2019-03-06T18:19:08.757Z,99090.37
2019-03-06T18:21:40.095Z,99084.84
2019-03-06T18:24:11.331Z,99088.09
2019-03-06T18:26:42.713Z,99071.62
2019-03-06T18:29:14.015Z,99067.33
2019-03-06T18:31:45.354Z,99061.47
2019-03-06T18:34:19.684Z,99051.62
2019-03-06T18:36:52.291Z,99052.85
2019-03-06T18:39:29.432Z,99039.19
2019-03-06T18:42:01.084Z,99040.16
2019-03-06T18:44:35.302Z,99036.30
2019-03-06T18:47:06.615Z,99035.33
2019-03-06T18:49:37.990Z,99037.26
2019-03-06T18:52:09.412Z,99024.03
2019-03-06T18:54:40.761Z,99032.41
2019-03-06T18:57:13.418Z,99025.36
2019-03-06T18:59:46.599Z,99025.28
2019-03-06T19:02:24.544Z,99025.56
2019-03-06T19:04:58.476Z,99024.58
2019-03-06T19:07:29.899Z,99025.28
2019-03-06T19:10:01.791Z,99018.63
2019-03-06T19:12:32.979Z,99026.37
2019-03-06T19:15:05.039Z,99024.98
2019-03-06T19:17:39.190Z,99028.34
2019-03-06T19:20:16.090Z,99016.89
2019-03-06T19:22:48.190Z,99010.70
2019-03-06T19:25:20.029Z,99008.44
2019-03-06T19:27:51.777Z,99011.81
2019-03-06T19:30:26.949Z,99009.86
2019-03-06T19:32:58.218Z,98996.09
2019-03-06T19:35:40.041Z,98995.63
2019-03-06T19:38:12.990Z,98988.72
2019-03-06T19:40:44.291Z,98996.19
2019-03-06T19:43:15.883Z,98981.08
2019-03-06T19:45:47.268Z,98991.56
2019-03-06T19:48:18.455Z,98997.64
2019-03-06T19:50:50.064Z,98991.48
2019-03-06T19:53:21.395Z,98991.77
2019-03-06T19:55:53.078Z,98986.03
2019-03-06T19:58:24.458Z,98988.48
2019-03-06T20:00:55.973Z,98979.78
2019-03-06T20:03:27.650Z,98988.84
2019-03-06T20:05:59.120Z,98983.28
2019-03-06T20:08:30.442Z,98988.72
2019-03-06T20:11:01.827Z,98985.28
2019-03-06T20:13:33.097Z,98979.48
2019-03-06T20:16:04.643Z,98976.55
2019-03-06T20:18:35.988Z,98985.72
2019-03-06T20:21:11.241Z,98976.72
2019-03-06T20:23:42.468Z,98967.97
2019-03-06T20:26:14.864Z,98978.44
2019-03-06T20:28:47.330Z,98978.88
2019-03-06T20:31:18.850Z,98977.02
2019-03-06T20:33:51.431Z,98972.58
2019-03-06T20:36:26.013Z,98969.32
2019-03-06T20:38:57.359Z,98973.88
2019-03-06T20:41:28.713Z,98975.63
2019-03-06T20:44:00.121Z,98975.95
2019-03-06T20:46:31.279Z,98964.98
2019-03-06T20:49:02.768Z,98957.30
2019-03-06T20:51:37.384Z,98964.80
2019-03-06T20:54:10.112Z,98962.30
2019-03-06T20:56:41.469Z,98951.77
2019-03-06T20:59:12.831Z,98952.36
2019-03-06T21:01:46.253Z,98956.36
2019-03-06T21:04:17.419Z,98953.88
2019-03-06T21:06:49.209Z,98956.55
2019-03-06T21:09:20.626Z,98962.11
2019-03-06T21:11:52.579Z,98967.00
2019-03-06T21:14:24.053Z,98964.05
2019-03-06T21:16:55.536Z,98963.64
2019-03-06T21:19:26.838Z,98970.51
2019-03-06T21:21:58.246Z,98959.31
2019-03-06T21:24:32.295Z,98961.78
2019-03-06T21:27:03.662Z,98960.78
2019-03-06T21:29:35.005Z,98953.80
2019-03-06T21:32:06.459Z,98950.64
2019-03-06T21:34:37.844Z,98946.25
2019-03-06T21:37:09.266Z,98944.67
2019-03-06T21:39:40.512Z,98935.98
2019-03-06T21:42:11.751Z,98932.50
2019-03-06T21:44:43.001Z,98931.27
2019-03-06T21:47:14.351Z,98916.71
2019-03-06T21:49:45.793Z,98918.67
2019-03-06T21:52:17.002Z,98910.89
2019-03-06T21:54:48.345Z,98912.50
2019-03-06T21:57:19.683Z,98917.52
2019-03-06T21:59:50.959Z,98914.14
2019-03-06T22:02:22.671Z,98912.70
2019-03-06T22:04:54.111Z,98914.48
2019-03-06T22:07:25.462Z,98914.38
2019-03-06T22:09:56.871Z,98909.97
2019-03-06T22:12:28.121Z,98908.31
2019-03-06T22:14:59.515Z,98905.44
2019-03-06T22:17:30.884Z,98905.52
2019-03-06T22:20:02.178Z,98899.52
2019-03-06T22:22:33.501Z,98901.65
2019-03-06T22:25:05.195Z,98899.75
2019-03-06T22:27:36.669Z,98893.36
2019-03-06T22:30:11.500Z,98886.41
2019-03-06T22:32:42.798Z,98888.15
2019-03-06T22:35:14.177Z,98882.88
2019-03-06T22:37:45.666Z,98887.87
2019-03-06T22:40:17.357Z,98872.85
2019-03-06T22:42:48.765Z,98871.42
2019-03-06T22:45:20.311Z,98872.28
2019-03-06T22:47:51.692Z,98861.84
2019-03-06T22:50:25.910Z,98862.05
2019-03-06T22:52:57.307Z,98859.36
2019-03-06T22:55:28.570Z,98854.56
2019-03-06T22:57:59.872Z,98847.22
2019-03-06T23:01:00.282Z,98847.22
2019-03-06T23:03:33.139Z,98841.00
2019-03-06T23:06:05.027Z,98836.00
2019-03-06T23:08:36.435Z,98824.12
2019-03-06T23:11:08.607Z,98822.52
2019-03-06T23:13:41.846Z,98808.27
2019-03-06T23:16:13.051Z,98808.73
2019-03-06T23:18:44.300Z,98805.05
2019-03-06T23:21:15.713Z,98796.75
2019-03-06T23:23:46.951Z,98796.28
2019-03-06T23:26:18.196Z,98792.77
2019-03-06T23:28:49.540Z,98784.06
2019-03-06T23:31:20.858Z,98777.15
2019-03-06T23:33:52.030Z,98778.22
2019-03-06T23:36:23.337Z,98768.88
2019-03-06T23:39:12.917Z,98764.38
2019-03-06T23:41:44.331Z,98756.95
2019-03-06T23:44:17.292Z,98750.86
2019-03-06T23:46:48.549Z,98744.30
2019-03-06T23:49:19.791Z,98747.08
2019-03-06T23:51:57.273Z,98744.77
2019-03-06T23:54:28.644Z,98740.84
2019-03-06T23:56:59.951Z,98742.10
2019-03-06T23:59:31.173Z,98742.20
